Time;durP1;ratioP1;P1;durP2;ratioP2;P2;SDS_P1;SDS_P2;PMS_P1;PMS_P2;Temp;Humidity;BMP_temperature;BMP_pressure;BME280_temperature;BME280_humidity;BME280_pressure;Samples;Min_cycle;Max_cycle;Signal;HPM_P1;HPM_P2
2022/10/17 00:01:16;;;;;;;;;;;;;;;12.89;100.00;99654.16;8290338;28;19933;-76
2022/10/17 00:05:17;;;;;;;;;;;;;;;12.87;100.00;99653.31;8316066;28;19936;-77
2022/10/17 00:09:19;;;;;;;;;;;;;;;12.77;100.00;99654.31;8303165;28;19929;-76
2022/10/17 00:13:20;;;;;;;;;;;;;;;12.76;100.00;99652.59;8301756;28;20003;-76
2022/10/17 00:17:22;;;;;;;;;;;;;;;12.75;100.00;99643.03;8291484;28;20405;-76
2022/10/17 00:21:23;;;;;;;;;;;;;;;12.75;100.00;99640.44;8302952;28;20500;-77
2022/10/17 00:25:25;;;;;;;;;;;;;;;12.81;100.00;99639.50;8315666;28;19933;-77
2022/10/17 00:29:26;;;;;;;;;;;;;;;12.79;100.00;99649.09;8315851;28;19929;-76
2022/10/17 00:33:28;;;;;;;;;;;;;;;12.79;100.00;99656.91;8292949;28;19943;-76
2022/10/17 00:37:30;;;;;;;;;;;;;;;12.79;100.00;99655.16;8300520;28;19932;-77
2022/10/17 00:41:32;;;;;;;;;;;;;;;12.78;100.00;99652.56;8321040;28;19929;-77
2022/10/17 00:45:33;;;;;;;;;;;;;;;12.77;100.00;99659.53;8315898;28;20290;-77
2022/10/17 00:49:35;;;;;;;;;;;;;;;12.71;100.00;99654.34;8286400;28;20707;-76
2022/10/17 00:53:38;;;;;;;;;;;;;;;12.68;100.00;99662.19;8318904;28;19930;-77
2022/10/17 00:57:40;;;;;;;;;;;;;;;12.65;100.00;99663.09;8302948;28;19929;-77
2022/10/17 01:01:45;;;;;;;;;;;;;;;12.61;100.00;99663.13;8311484;28;20026;-77
2022/10/17 01:05:47;;;;;;;;;;;;;;;12.57;100.00;99661.44;8297782;28;19929;-76
2022/10/17 01:09:48;;;;;;;;;;;;;;;12.57;100.00;99656.22;8282667;28;19937;-76
2022/10/17 01:14:06;;;;;;;;;;;;;;;12.55;100.00;99668.38;8302922;28;19925;-76
2022/10/17 01:18:11;;;;;;;;;;;;;;;12.55;100.00;99668.38;8297519;28;19987;-77
2022/10/17 01:22:26;;;;;;;;;;;;;;;12.55;100.00;99665.75;8315973;28;19979;-76
2022/10/17 01:26:54;;;;;;;;;;;;;;;12.54;100.00;99669.25;8318800;28;19933;-76
2022/10/17 01:31:12;;;;;;;;;;;;;;;12.54;100.00;99666.66;8274755;28;19929;-77
2022/10/17 01:35:26;;;;;;;;;;;;;;;12.58;100.00;99660.56;8283261;28;19929;-77
2022/10/17 01:39:46;;;;;;;;;;;;;;;12.56;100.00;99668.34;8286699;28;20509;-77
2022/10/17 01:43:54;;;;;;;;;;;;;;;12.56;100.00;99665.75;8299554;28;19979;-77
2022/10/17 01:47:57;;;;;;;;;;;;;;;12.56;100.00;99659.69;8280542;28;19933;-77
2022/10/17 01:52:05;;;;;;;;;;;;;;;12.57;100.00;99658.84;8285393;28;19930;-77
2022/10/17 01:56:09;;;;;;;;;;;;;;;12.60;100.00;99658.81;8268060;28;20000;-76
2022/10/17 02:00:14;;;;;;;;;;;;;;;12.64;100.00;99665.72;8264830;28;19929;-77
2022/10/17 02:04:15;;;;;;;;;;;;;;;12.64;100.00;99661.34;8284466;28;19988;-76
2022/10/17 02:08:27;;;;;;;;;;;;;;;12.64;100.00;99661.34;8286123;28;19983;-77
2022/10/17 02:12:35;;;;;;;;;;;;;;;12.64;100.00;99655.28;8278489;28;20365;-77
2022/10/17 02:16:42;;;;;;;;;;;;;;;12.63;100.00;99658.78;8277191;28;20384;-76
2022/10/17 02:20:59;;;;;;;;;;;;;;;12.71;100.00;99649.13;8283233;28;19964;-77
2022/10/17 02:25:20;;;;;;;;;;;;;;;12.80;100.00;99658.63;8285493;28;19929;-76
2022/10/17 02:29:25;;;;;;;;;;;;;;;12.85;100.00;99652.47;8284552;28;19929;-77
2022/10/17 02:33:33;;;;;;;;;;;;;;;12.81;100.00;99656.00;8281370;28;19929;-77
2022/10/17 02:37:35;;;;;;;;;;;;;;;12.79;100.00;99659.50;8309451;28;19952;-77
2022/10/17 02:41:37;;;;;;;;;;;;;;;12.78;100.00;99666.47;8305437;28;19929;-76
2022/10/17 02:45:39;;;;;;;;;;;;;;;12.76;100.00;99667.34;8299775;28;19929;-76
2022/10/17 02:49:43;;;;;;;;;;;;;;;12.75;100.00;99665.59;8319777;28;19999;-77
2022/10/17 02:54:07;;;;;;;;;;;;;;;12.73;100.00;99665.63;8315945;28;19940;-77
2022/10/17 02:58:21;;;;;;;;;;;;;;;12.71;100.00;99659.56;8300654;28;19939;-76
2022/10/17 03:02:22;;;;;;;;;;;;;;;12.69;100.00;99661.31;8274449;28;20486;-77
2022/10/17 03:06:23;;;;;;;;;;;;;;;12.64;100.00;99645.72;8301771;28;19939;-77
2022/10/17 03:10:25;;;;;;;;;;;;;;;12.59;100.00;99650.13;8299698;28;20660;-76
2022/10/17 03:14:26;;;;;;;;;;;;;;;12.52;100.00;99655.38;8301044;28;19929;-77
2022/10/17 03:18:28;;;;;;;;;;;;;;;12.49;100.00;99663.22;8312673;28;19937;-77
2022/10/17 03:22:30;;;;;;;;;;;;;;;12.45;100.00;99664.13;8310217;28;19991;-76
2022/10/17 03:26:32;;;;;;;;;;;;;;;12.41;100.00;99668.50;8320417;28;19936;-76
2022/10/17 03:30:33;;;;;;;;;;;;;;;12.45;100.00;99674.53;8297339;28;19936;-76
2022/10/17 03:34:35;;;;;;;;;;;;;;;12.43;100.00;99674.56;8306298;28;20381;-77
2022/10/17 03:38:36;;;;;;;;;;;;;;;12.43;100.00;99679.78;8317221;28;19929;-77
2022/10/17 03:42:38;;;;;;;;;;;;;;;12.40;100.00;99687.59;8326516;28;19929;-77
2022/10/17 03:46:39;;;;;;;;;;;;;;;12.37;100.00;99685.00;8278618;28;20249;-76
2022/10/17 03:50:40;;;;;;;;;;;;;;;12.34;100.00;99690.22;8306431;28;20427;-77
2022/10/17 03:54:43;;;;;;;;;;;;;;;12.32;100.00;99690.25;8325164;28;19936;-77
2022/10/17 03:58:44;;;;;;;;;;;;;;;12.32;100.00;99702.41;8298873;28;19928;-77
2022/10/17 04:02:46;;;;;;;;;;;;;;;12.29;100.00;99702.44;8302525;28;19929;-77
2022/10/17 04:06:47;;;;;;;;;;;;;;;12.25;100.00;99696.38;8322497;28;19929;-77
2022/10/17 04:10:48;;;;;;;;;;;;;;;12.23;100.00;99698.13;8304774;28;19933;-77
2022/10/17 04:14:49;;;;;;;;;;;;;;;12.24;100.00;99685.97;8321027;28;19929;-77
2022/10/17 04:18:54;;;;;;;;;;;;;;;12.23;100.00;99697.28;8312653;28;19963;-77
2022/10/17 04:22:55;;;;;;;;;;;;;;;12.18;100.00;99694.66;8291460;28;19929;-76
2022/10/17 04:26:57;;;;;;;;;;;;;;;12.12;100.00;99696.47;8306046;28;19929;-77
2022/10/17 04:31:05;;;;;;;;;;;;;;;12.11;100.00;99698.19;8318641;28;19929;-77
2022/10/17 04:35:07;;;;;;;;;;;;;;;12.14;100.00;99707.72;8321845;28;19936;-77
2022/10/17 04:39:08;;;;;;;;;;;;;;;12.09;100.00;99716.44;8308783;28;19958;-77
2022/10/17 04:43:10;;;;;;;;;;;;;;;12.05;100.00;99712.13;8321129;28;19939;-77
2022/10/17 04:47:11;;;;;;;;;;;;;;;12.03;100.00;99726.00;8297900;28;19930;-77
2022/10/17 04:51:14;;;;;;;;;;;;;;;12.02;100.00;99716.44;8305079;28;19937;-77
2022/10/17 04:55:15;;;;;;;;;;;;;;;11.99;100.00;99719.06;8313514;28;19982;-77
2022/10/17 04:59:16;;;;;;;;;;;;;;;11.93;100.00;99716.50;8305495;28;19935;-76
2022/10/17 05:03:19;;;;;;;;;;;;;;;11.90;100.00;99725.19;8309987;28;20025;-77
2022/10/17 05:07:20;;;;;;;;;;;;;;;11.86;100.00;99715.69;8310821;28;19929;-77
2022/10/17 05:11:26;;;;;;;;;;;;;;;11.82;100.00;99733.88;8275854;28;19933;-76
2022/10/17 05:15:27;;;;;;;;;;;;;;;11.77;100.00;99729.53;8314488;28;19929;-77
2022/10/17 05:19:29;;;;;;;;;;;;;;;11.75;100.00;99730.44;8298571;28;19944;-77
2022/10/17 05:23:30;;;;;;;;;;;;;;;11.72;100.00;99726.09;8312093;28;19928;-77
2022/10/17 05:27:31;;;;;;;;;;;;;;;11.71;100.00;99721.78;8312709;28;19929;-77
2022/10/17 05:31:33;;;;;;;;;;;;;;;11.66;100.00;99735.66;8309769;28;19937;-77
2022/10/17 05:35:36;;;;;;;;;;;;;;;11.67;100.00;99729.56;8309531;28;20024;-77
2022/10/17 05:39:39;;;;;;;;;;;;;;;11.71;100.00;99726.97;8303362;28;20020;-77
2022/10/17 05:43:40;;;;;;;;;;;;;;;11.77;100.00;99731.28;8296679;28;19930;-77
2022/10/17 05:47:42;;;;;;;;;;;;;;;11.84;100.00;99732.16;8282415;28;19975;-78
2022/10/17 05:51:43;;;;;;;;;;;;;;;11.87;100.00;99735.63;8301968;28;19940;-78
2022/10/17 05:55:44;;;;;;;;;;;;;;;11.91;100.00;99745.13;8303384;28;19943;-78
2022/10/17 05:59:46;;;;;;;;;;;;;;;11.99;100.00;99740.75;8317916;28;19929;-79
2022/10/17 06:03:47;;;;;;;;;;;;;;;12.06;100.00;99739.00;8296835;28;19944;-78
2022/10/17 06:07:51;;;;;;;;;;;;;;;12.13;100.00;99740.69;8302012;28;20293;-78
2022/10/17 06:11:52;;;;;;;;;;;;;;;12.14;100.00;99760.66;8302689;28;20398;-78
2022/10/17 06:15:54;;;;;;;;;;;;;;;12.19;100.00;99763.22;8308773;28;19983;-78
2022/10/17 06:19:56;;;;;;;;;;;;;;;12.24;100.00;99769.28;8284339;28;20011;-78
2022/10/17 06:23:57;;;;;;;;;;;;;;;12.36;100.00;99771.81;8313843;28;19929;-78
2022/10/17 06:27:58;;;;;;;;;;;;;;;12.61;100.00;99782.97;8300435;28;19933;-79
2022/10/17 06:32:00;;;;;;;;;;;;;;;12.92;100.00;99781.84;8294520;28;19933;-79
2022/10/17 06:36:02;;;;;;;;;;;;;;;13.17;100.00;99794.72;8308425;28;19991;-79
2022/10/17 06:40:04;;;;;;;;;;;;;;;13.40;100.00;99803.22;8321865;28;19983;-79
2022/10/17 06:44:09;;;;;;;;;;;;;;;13.55;100.00;99807.44;8300184;28;19929;-79
2022/10/17 06:48:11;;;;;;;;;;;;;;;13.73;100.00;99809.84;8291911;28;19929;-78
2022/10/17 06:52:13;;;;;;;;;;;;;;;13.89;100.00;99816.63;8299607;28;19932;-78
2022/10/17 06:56:14;;;;;;;;;;;;;;;14.06;100.00;99824.28;8312607;28;19929;-78
2022/10/17 07:00:16;;;;;;;;;;;;;;;14.22;100.00;99827.59;8308467;28;19936;-77
2022/10/17 07:04:17;;;;;;;;;;;;;;;14.41;100.00;99833.44;8295554;28;19933;-78
2022/10/17 07:08:19;;;;;;;;;;;;;;;14.61;100.00;99828.84;8292683;28;19963;-77
2022/10/17 07:12:21;;;;;;;;;;;;;;;14.77;100.00;99835.59;8312352;28;20023;-78
2022/10/17 07:16:22;;;;;;;;;;;;;;;14.91;100.00;99839.75;8272939;28;19929;-77
2022/10/17 07:20:24;;;;;;;;;;;;;;;15.05;100.00;99851.72;8314488;28;19925;-78
2022/10/17 07:24:25;;;;;;;;;;;;;;;15.25;100.00;99853.16;8298152;28;19926;-78
2022/10/17 07:28:27;;;;;;;;;;;;;;;15.46;100.00;99849.34;8297712;28;19944;-79
2022/10/17 07:32:29;;;;;;;;;;;;;;;15.65;99.89;99861.25;8291267;28;19940;-78
2022/10/17 07:36:30;;;;;;;;;;;;;;;15.84;98.68;99851.31;8278746;28;20298;-78
2022/10/17 07:40:31;;;;;;;;;;;;;;;16.06;98.15;99857.00;8266146;28;19929;-78
2022/10/17 07:44:34;;;;;;;;;;;;;;;16.26;96.83;99865.34;8259613;28;20003;-79
2022/10/17 07:48:36;;;;;;;;;;;;;;;16.49;95.87;99864.88;8300368;28;19930;-78
2022/10/17 07:52:37;;;;;;;;;;;;;;;16.74;95.03;99871.38;8279508;28;19929;-78
2022/10/17 07:56:38;;;;;;;;;;;;;;;17.03;93.96;99875.94;8279833;28;20277;-78
2022/10/17 08:00:39;;;;;;;;;;;;;;;17.39;91.69;99876.84;8292467;28;19932;-78
2022/10/17 08:04:41;;;;;;;;;;;;;;;17.77;89.74;99873.31;8254248;28;19975;-78
2022/10/17 08:08:43;;;;;;;;;;;;;;;18.08;88.57;99882.97;8275936;28;19981;-78
2022/10/17 08:12:45;;;;;;;;;;;;;;;18.37;87.60;99874.31;8296501;28;19933;-78
2022/10/17 08:16:46;;;;;;;;;;;;;;;18.61;86.25;99873.56;8281960;28;20512;-78
2022/10/17 08:20:47;;;;;;;;;;;;;;;18.89;84.32;99881.56;8290136;28;19995;-78
2022/10/17 08:24:48;;;;;;;;;;;;;;;19.05;81.86;99889.00;8282301;28;19981;-78
2022/10/17 08:28:50;;;;;;;;;;;;;;;19.17;80.70;99888.56;8284959;28;19929;-78
2022/10/17 08:32:51;;;;;;;;;;;;;;;19.26;79.99;99889.16;8292338;28;19929;-79
2022/10/17 08:36:53;;;;;;;;;;;;;;;19.32;79.21;99888.97;8274569;28;20357;-79
2022/10/17 08:40:58;;;;;;;;;;;;;;;19.50;80.34;99895.41;8281927;28;19937;-79
2022/10/17 08:45:13;;;;;;;;;;;;;;;19.64;78.13;99888.84;8284403;28;19934;-79
2022/10/17 08:49:29;;;;;;;;;;;;;;;19.97;77.87;99889.50;8285532;28;19930;-79
2022/10/17 08:53:35;;;;;;;;;;;;;;;20.18;75.04;99891.38;8282769;28;19929;-78
2022/10/17 08:57:37;;;;;;;;;;;;;;;20.42;74.40;99903.69;8286497;28;19929;-79
2022/10/17 09:01:58;;;;;;;;;;;;;;;20.58;72.67;99913.69;8275991;28;19976;-79
2022/10/17 09:06:24;;;;;;;;;;;;;;;20.57;72.44;99907.53;8243686;28;19991;-77
2022/10/17 09:10:25;;;;;;;;;;;;;;;20.70;72.82;99913.25;8283779;28;19929;-78
2022/10/17 09:14:43;;;;;;;;;;;;;;;20.80;71.86;99920.72;8270382;28;20617;-79
2022/10/17 09:18:46;;;;;;;;;;;;;;;20.95;71.13;99929.84;8279701;28;19940;-78
2022/10/17 09:22:48;;;;;;;;;;;;;;;21.15;69.76;99929.09;8282338;28;20385;-79
2022/10/17 09:26:51;;;;;;;;;;;;;;;21.27;70.06;99930.44;8285497;28;20255;-79
2022/10/17 09:31:01;;;;;;;;;;;;;;;21.28;69.07;99935.66;8258289;28;20539;-79
2022/10/17 09:35:02;;;;;;;;;;;;;;;21.40;68.68;99932.53;8302438;28;19929;-80
2022/10/17 09:39:06;;;;;;;;;;;;;;;21.29;68.43;99937.38;8297877;28;19964;-79
2022/10/17 09:43:10;;;;;;;;;;;;;;;21.17;69.75;99934.31;8302208;28;20337;-79
2022/10/17 09:47:11;;;;;;;;;;;;;;;21.24;69.73;99952.53;8282346;28;19998;-80
2022/10/17 09:51:13;;;;;;;;;;;;;;;21.34;69.07;99953.03;8286546;28;19929;-79
2022/10/17 09:55:28;;;;;;;;;;;;;;;21.44;69.10;99953.53;8301233;28;20171;-79
2022/10/17 09:59:40;;;;;;;;;;;;;;;21.62;68.52;99956.31;8284044;28;20542;-78
2022/10/17 10:03:41;;;;;;;;;;;;;;;21.77;68.07;99960.09;8293493;28;19929;-78
2022/10/17 10:07:58;;;;;;;;;;;;;;;21.90;66.92;99955.16;8280631;28;19929;-79
2022/10/17 10:12:02;;;;;;;;;;;;;;;21.88;66.78;99979.00;8313945;28;20388;-77
2022/10/17 10:16:23;;;;;;;;;;;;;;;22.06;66.88;99974.78;8294015;28;19929;-78
2022/10/17 10:20:24;;;;;;;;;;;;;;;22.08;67.16;99977.34;8311923;28;19929;-79
2022/10/17 10:24:26;;;;;;;;;;;;;;;22.30;67.99;99978.19;8314597;28;20341;-79
2022/10/17 10:28:35;;;;;;;;;;;;;;;22.50;66.71;99975.53;8283636;28;19936;-79
2022/10/17 10:32:36;;;;;;;;;;;;;;;22.42;64.90;99982.91;8287220;28;19940;-79
2022/10/17 10:36:46;;;;;;;;;;;;;;;22.55;66.29;99970.03;8307797;28;20362;-79
2022/10/17 10:40:53;;;;;;;;;;;;;;;22.64;65.30;99980.22;8297887;28;20267;-79
2022/10/17 10:44:58;;;;;;;;;;;;;;;22.67;65.68;99985.38;8304559;28;19975;-80
2022/10/17 10:49:00;;;;;;;;;;;;;;;22.73;65.64;100000.13;8293927;28;20563;-80
2022/10/17 10:53:08;;;;;;;;;;;;;;;22.74;64.65;99992.09;8299441;28;19929;-79
2022/10/17 10:57:18;;;;;;;;;;;;;;;22.70;65.54;100003.75;8311451;28;19929;-78
2022/10/17 11:01:20;;;;;;;;;;;;;;;22.67;64.61;99997.75;8293354;28;19976;-79
2022/10/17 11:05:33;;;;;;;;;;;;;;;22.89;66.18;99999.38;8299933;28;19987;-79
2022/10/17 11:09:43;;;;;;;;;;;;;;;23.21;65.03;99999.72;8307890;28;19939;-79
2022/10/17 11:13:59;;;;;;;;;;;;;;;23.31;64.42;99994.81;8298280;28;20353;-79
2022/10/17 11:18:19;;;;;;;;;;;;;;;23.48;63.95;99994.88;8309530;28;20328;-79
2022/10/17 11:22:29;;;;;;;;;;;;;;;23.58;62.32;99998.88;8309704;28;19929;-79
2022/10/17 11:26:34;;;;;;;;;;;;;;;23.60;61.80;99985.53;8296710;28;19929;-79
2022/10/17 11:30:43;;;;;;;;;;;;;;;23.50;61.59;99993.00;8306293;28;20443;-79
2022/10/17 11:34:52;;;;;;;;;;;;;;;23.63;62.43;99988.03;8290951;28;20370;-78
2022/10/17 11:38:53;;;;;;;;;;;;;;;23.76;63.48;99995.31;8324724;28;20020;-80
2022/10/17 11:42:59;;;;;;;;;;;;;;;23.73;61.90;99987.53;8292745;28;19928;-79
2022/10/17 11:47:09;;;;;;;;;;;;;;;23.61;61.93;99993.41;8295199;28;19939;-79
2022/10/17 11:51:12;;;;;;;;;;;;;;;23.60;62.10;99999.66;8302496;28;19979;-79
2022/10/17 11:55:37;;;;;;;;;;;;;;;23.67;61.54;99994.88;8307935;28;19929;-79
2022/10/17 11:59:57;;;;;;;;;;;;;;;23.66;61.82;100004.63;8313012;28;20020;-79
2022/10/17 12:04:18;;;;;;;;;;;;;;;23.73;63.03;99992.81;8311497;28;20512;-79
2022/10/17 12:08:25;;;;;;;;;;;;;;;23.83;63.74;99995.00;8298549;28;19933;-79
2022/10/17 12:12:33;;;;;;;;;;;;;;;23.91;62.25;99996.38;8305490;28;19978;-79
2022/10/17 12:16:34;;;;;;;;;;;;;;;23.98;63.27;99989.81;8278434;28;20104;-79
2022/10/17 12:20:36;;;;;;;;;;;;;;;23.97;61.18;99993.41;8316157;28;19929;-78
2022/10/17 12:24:39;;;;;;;;;;;;;;;23.85;60.94;100001.09;8321275;28;20424;-78
2022/10/17 12:28:45;;;;;;;;;;;;;;;23.84;61.65;100000.22;8301396;28;19929;-78
2022/10/17 12:33:02;;;;;;;;;;;;;;;23.84;61.47;99997.59;8273479;28;19929;-79
2022/10/17 12:37:09;;;;;;;;;;;;;;;23.93;61.80;100002.44;8284476;28;19930;-79
2022/10/17 12:41:11;;;;;;;;;;;;;;;24.05;62.13;99996.50;8284982;28;19935;-79
2022/10/17 12:45:31;;;;;;;;;;;;;;;24.02;62.72;100004.63;8290404;28;19929;-79
2022/10/17 12:49:36;;;;;;;;;;;;;;;23.81;62.30;100008.34;8269707;28;19984;-79
2022/10/17 12:53:40;;;;;;;;;;;;;;;23.69;62.68;100009.78;8281718;28;20302;-79
2022/10/17 12:57:41;;;;;;;;;;;;;;;23.57;63.24;100001.59;8280727;28;19925;-78
2022/10/17 13:01:45;;;;;;;;;;;;;;;23.47;63.40;100001.97;8277860;28;19933;-78
2022/10/17 13:05:48;;;;;;;;;;;;;;;23.30;63.58;100009.00;8285188;28;19929;-79
2022/10/17 13:09:50;;;;;;;;;;;;;;;23.16;64.30;100010.53;8283363;28;19944;-78
2022/10/17 13:13:52;;;;;;;;;;;;;;;23.08;64.97;100002.06;8269958;28;20329;-79
2022/10/17 13:17:58;;;;;;;;;;;;;;;23.04;65.54;99997.84;8262304;28;19941;-79
2022/10/17 13:22:00;;;;;;;;;;;;;;;23.01;64.96;99997.13;8285547;28;20381;-78
2022/10/17 13:26:16;;;;;;;;;;;;;;;23.05;65.90;99996.03;8270567;28;19929;-79
2022/10/17 13:30:20;;;;;;;;;;;;;;;23.15;66.67;100006.13;8277529;28;19980;-79
2022/10/17 13:34:22;;;;;;;;;;;;;;;23.24;65.35;100004.00;8290809;28;19929;-79
2022/10/17 13:38:26;;;;;;;;;;;;;;;23.18;64.53;99998.06;8275568;28;19991;-78
2022/10/17 13:42:35;;;;;;;;;;;;;;;23.16;65.45;100001.69;8283110;28;20301;-79
2022/10/17 13:46:37;;;;;;;;;;;;;;;23.03;67.01;100006.72;8312118;28;19929;-79
2022/10/17 13:50:40;;;;;;;;;;;;;;;22.88;66.87;100008.28;8302140;28;20599;-79
2022/10/17 13:54:47;;;;;;;;;;;;;;;22.77;68.11;100012.28;8277327;28;19933;-78
2022/10/17 13:58:50;;;;;;;;;;;;;;;22.72;69.32;100009.84;8311446;28;19987;-78
2022/10/17 14:02:51;;;;;;;;;;;;;;;22.75;70.97;100012.34;8308068;28;19998;-79
2022/10/17 14:06:52;;;;;;;;;;;;;;;22.75;69.24;100007.06;8312374;28;19987;-79
2022/10/17 14:10:53;;;;;;;;;;;;;;;22.69;69.01;100012.63;8316432;28;20006;-79
2022/10/17 14:14:55;;;;;;;;;;;;;;;22.58;70.28;100005.16;8312756;28;19928;-78
2022/10/17 14:19:24;;;;;;;;;;;;;;;22.44;71.57;100012.84;8295081;28;19929;-79
2022/10/17 14:23:31;;;;;;;;;;;;;;;22.35;72.85;100012.38;8277335;28;19929;-79
2022/10/17 14:27:38;;;;;;;;;;;;;;;22.34;74.43;100018.59;8316749;28;19941;-77
2022/10/17 14:31:40;;;;;;;;;;;;;;;22.23;75.95;100008.44;8304980;28;20012;-78
2022/10/17 14:35:49;;;;;;;;;;;;;;;22.05;76.65;100010.09;8314119;28;19941;-78
2022/10/17 14:39:50;;;;;;;;;;;;;;;21.98;74.90;100020.03;8295299;28;19999;-78
2022/10/17 14:43:53;;;;;;;;;;;;;;;21.99;75.03;100012.97;8296280;28;19933;-78
2022/10/17 14:47:58;;;;;;;;;;;;;;;21.96;75.91;100016.59;8271423;28;19995;-78
2022/10/17 14:52:23;;;;;;;;;;;;;;;21.88;78.47;100015.16;8315821;28;19937;-78
2022/10/17 14:56:26;;;;;;;;;;;;;;;21.90;77.33;100018.59;8296539;28;19936;-78
2022/10/17 15:00:27;;;;;;;;;;;;;;;21.96;76.30;100028.97;8286936;28;20022;-78
2022/10/17 15:04:29;;;;;;;;;;;;;;;21.98;75.55;100025.31;8297073;28;19948;-77
2022/10/17 15:08:30;;;;;;;;;;;;;;;21.94;76.24;100036.97;8295239;28;20380;-78
2022/10/17 15:12:31;;;;;;;;;;;;;;;21.81;77.64;100045.44;8313368;28;20665;-78
2022/10/17 15:16:33;;;;;;;;;;;;;;;21.67;79.23;100061.84;8289122;28;19929;-78
2022/10/17 15:20:38;;;;;;;;;;;;;;;21.48;81.03;100060.81;8320701;28;19929;-78
2022/10/17 15:24:39;;;;;;;;;;;;;;;21.41;80.94;100061.06;8299911;28;19948;-78
2022/10/17 15:28:40;;;;;;;;;;;;;;;21.30;82.93;100065.03;8315774;28;19936;-77
2022/10/17 15:32:42;;;;;;;;;;;;;;;21.19;83.95;100059.28;8313492;28;19929;-78
2022/10/17 15:36:47;;;;;;;;;;;;;;;21.05;85.04;100058.00;8310356;28;20456;-77
2022/10/17 15:40:50;;;;;;;;;;;;;;;20.92;85.14;100050.56;8299102;28;19991;-78
2022/10/17 15:44:52;;;;;;;;;;;;;;;20.80;85.54;100058.00;8311910;28;20755;-77
2022/10/17 15:48:54;;;;;;;;;;;;;;;20.74;85.04;100063.50;8311956;28;19983;-78
2022/10/17 15:52:55;;;;;;;;;;;;;;;20.59;85.97;100055.25;8316318;28;19929;-78
2022/10/17 15:56:56;;;;;;;;;;;;;;;20.41;87.26;100064.66;8316596;28;19995;-78
2022/10/17 16:00:58;;;;;;;;;;;;;;;20.28;87.96;100065.94;8298207;28;19924;-77
2022/10/17 16:04:59;;;;;;;;;;;;;;;20.10;88.94;100059.50;8299484;28;20293;-78
2022/10/17 16:09:01;;;;;;;;;;;;;;;19.97;89.67;100069.59;8320462;28;19983;-78
2022/10/17 16:13:02;;;;;;;;;;;;;;;19.87;90.57;100071.66;8315053;28;19940;-78
2022/10/17 16:17:03;;;;;;;;;;;;;;;19.82;90.95;100063.03;8294319;28;20020;-78
2022/10/17 16:21:05;;;;;;;;;;;;;;;19.76;91.22;100063.25;8297195;28;20467;-78
2022/10/17 16:25:18;;;;;;;;;;;;;;;19.71;91.83;100069.53;8287622;28;19932;-78
2022/10/17 16:29:19;;;;;;;;;;;;;;;19.59;92.52;100071.66;8316000;28;19932;-78
2022/10/17 16:33:20;;;;;;;;;;;;;;;19.53;93.10;100068.28;8294763;28;19933;-78
2022/10/17 16:37:22;;;;;;;;;;;;;;;19.45;93.71;100072.94;8294869;28;19937;-78
2022/10/17 16:41:34;;;;;;;;;;;;;;;19.38;94.51;100072.25;8317354;28;19991;-77
2022/10/17 16:45:35;;;;;;;;;;;;;;;19.29;95.06;100083.94;8288654;28;19976;-77
2022/10/17 16:49:37;;;;;;;;;;;;;;;19.28;95.35;100087.47;8296952;28;19980;-78
2022/10/17 16:53:44;;;;;;;;;;;;;;;19.22;95.51;100094.69;8308179;28;20259;-78
2022/10/17 16:57:47;;;;;;;;;;;;;;;19.17;95.86;100091.31;8299386;28;20298;-78
2022/10/17 17:01:49;;;;;;;;;;;;;;;19.11;96.14;100100.25;8294238;28;19940;-78
2022/10/17 17:05:50;;;;;;;;;;;;;;;19.04;96.47;100105.75;8315895;28;19945;-77
2022/10/17 17:09:52;;;;;;;;;;;;;;;18.96;96.75;100114.69;8302048;28;19940;-77
2022/10/17 17:13:55;;;;;;;;;;;;;;;18.88;97.23;100114.03;8298893;28;20317;-77
2022/10/17 17:17:56;;;;;;;;;;;;;;;18.82;97.73;100110.69;8315887;28;19929;-78
2022/10/17 17:22:03;;;;;;;;;;;;;;;18.81;97.64;100112.47;8303267;28;19935;-76
2022/10/17 17:26:06;;;;;;;;;;;;;;;18.76;98.01;100106.47;8286715;28;20546;-77
2022/10/17 17:30:08;;;;;;;;;;;;;;;18.69;98.35;100118.94;8298370;28;20345;-77
2022/10/17 17:34:10;;;;;;;;;;;;;;;18.65;98.77;100129.53;8305199;28;20003;-77
2022/10/17 17:38:17;;;;;;;;;;;;;;;18.60;99.25;100136.66;8288673;28;20028;-77
2022/10/17 17:42:18;;;;;;;;;;;;;;;18.55;99.50;100136.78;8287093;28;19933;-77
2022/10/17 17:46:20;;;;;;;;;;;;;;;18.55;100.00;100130.66;8297988;28;19987;-77
2022/10/17 17:50:21;;;;;;;;;;;;;;;18.56;100.00;100146.41;8303089;28;19996;-77
2022/10/17 17:54:23;;;;;;;;;;;;;;;18.52;100.00;100143.91;8289480;28;19933;-77
2022/10/17 17:58:24;;;;;;;;;;;;;;;18.48;100.00;100145.72;8306369;28;19940;-77
2022/10/17 18:02:26;;;;;;;;;;;;;;;18.45;100.00;100150.19;8298711;28;19991;-77
2022/10/17 18:06:27;;;;;;;;;;;;;;;18.41;100.00;100157.28;8275684;28;19929;-77
2022/10/17 18:10:29;;;;;;;;;;;;;;;18.37;100.00;100153.88;8283341;28;19975;-77
2022/10/17 18:14:30;;;;;;;;;;;;;;;18.35;100.00;100157.44;8303941;28;19928;-77
2022/10/17 18:18:32;;;;;;;;;;;;;;;18.34;100.00;100164.47;8296926;28;19972;-77
2022/10/17 18:22:34;;;;;;;;;;;;;;;18.30;100.00;100157.53;8310667;28;20035;-77
2022/10/17 18:26:35;;;;;;;;;;;;;;;18.28;100.00;100158.47;8311661;28;20408;-77
2022/10/17 18:30:37;;;;;;;;;;;;;;;18.27;100.00;100162.00;8294922;28;19929;-77
2022/10/17 18:34:40;;;;;;;;;;;;;;;18.22;100.00;100163.88;8302117;28;19937;-78
2022/10/17 18:38:42;;;;;;;;;;;;;;;18.19;100.00;100156.09;8298842;28;20487;-77
2022/10/17 18:42:43;;;;;;;;;;;;;;;18.16;100.00;100164.03;8300303;28;19935;-77
2022/10/17 18:46:45;;;;;;;;;;;;;;;18.11;100.00;100172.88;8291805;28;19929;-77
2022/10/17 18:50:47;;;;;;;;;;;;;;;18.05;100.00;100167.75;8313570;28;19933;-76
2022/10/17 18:54:48;;;;;;;;;;;;;;;18.07;100.00;100163.34;8288363;28;19941;-76
2022/10/17 18:58:49;;;;;;;;;;;;;;;18.11;100.00;100162.34;8305886;28;19991;-77
2022/10/17 19:02:51;;;;;;;;;;;;;;;18.16;100.00;100159.66;8288691;28;20020;-77
2022/10/17 19:06:52;;;;;;;;;;;;;;;18.10;100.00;100158.00;8312573;28;19975;-77
2022/10/17 19:10:54;;;;;;;;;;;;;;;18.09;100.00;100150.16;8293250;28;19995;-77
2022/10/17 19:14:56;;;;;;;;;;;;;;;18.09;100.00;100144.91;8301961;28;19944;-77
2022/10/17 19:19:00;;;;;;;;;;;;;;;18.05;100.00;100138.84;8295771;28;20417;-77
2022/10/17 19:23:02;;;;;;;;;;;;;;;18.00;100.00;100135.47;8306157;28;19937;-77
2022/10/17 19:27:05;;;;;;;;;;;;;;;18.00;100.00;100127.59;8313733;28;19932;-77
2022/10/17 19:31:07;;;;;;;;;;;;;;;17.97;100.00;100134.69;8288354;28;20705;-77
2022/10/17 19:35:10;;;;;;;;;;;;;;;17.92;100.00;100132.13;8282674;28;19944;-77
2022/10/17 19:39:13;;;;;;;;;;;;;;;17.88;100.00;100135.75;8306851;28;20056;-77
2022/10/17 19:43:14;;;;;;;;;;;;;;;17.85;100.00;100134.94;8297029;28;20497;-77
2022/10/17 19:47:16;;;;;;;;;;;;;;;17.83;100.00;100140.25;8286670;28;20281;-77
2022/10/17 19:51:19;;;;;;;;;;;;;;;17.81;100.00;100135.03;8308330;28;19975;-77
2022/10/17 19:55:21;;;;;;;;;;;;;;;17.77;100.00;100133.38;8312494;28;19940;-77
2022/10/17 19:59:22;;;;;;;;;;;;;;;17.75;100.00;100132.50;8292841;28;20654;-77
2022/10/17 20:03:28;;;;;;;;;;;;;;;17.70;100.00;100131.75;8288037;28;19937;-77
2022/10/17 20:07:29;;;;;;;;;;;;;;;17.71;100.00;100140.50;8317810;28;19975;-77
2022/10/17 20:11:31;;;;;;;;;;;;;;;17.69;100.00;100130.03;8318498;28;20007;-77
2022/10/17 20:15:32;;;;;;;;;;;;;;;17.69;100.00;100126.53;8313097;28;19996;-77
2022/10/17 20:19:33;;;;;;;;;;;;;;;17.66;100.00;100129.19;8318693;28;20399;-76
2022/10/17 20:23:35;;;;;;;;;;;;;;;17.63;100.00;100124.88;8299754;28;20356;-76
2022/10/17 20:27:37;;;;;;;;;;;;;;;17.61;100.00;100138.94;8303551;28;19935;-76
2022/10/17 20:31:39;;;;;;;;;;;;;;;17.59;100.00;100138.09;8296272;28;19929;-77
2022/10/17 20:35:41;;;;;;;;;;;;;;;17.53;100.00;100152.22;8285352;28;19944;-76
2022/10/17 20:39:43;;;;;;;;;;;;;;;17.51;100.00;100149.63;8276123;28;20306;-76
2022/10/17 20:43:44;;;;;;;;;;;;;;;17.48;100.00;100154.94;8287557;28;19933;-76
2022/10/17 20:47:48;;;;;;;;;;;;;;;17.48;100.00;100164.59;8264401;28;19933;-77
2022/10/17 20:51:52;;;;;;;;;;;;;;;17.45;100.00;100160.28;8287157;28;19941;-77
2022/10/17 20:56:04;;;;;;;;;;;;;;;17.42;100.00;100159.47;8273287;28;19939;-77